Time;durP1;ratioP1;P1;durP2;ratioP2;P2;SDS_P1;SDS_P2;PMS_P1;PMS_P2;Temp;Humidity;BMP_temperature;BMP_pressure;BME280_temperature;BME280_humidity;BME280_pressure;Samples;Min_cycle;Max_cycle;Signal;HPM_P1;HPM_P2
2023/04/29 00:01:38;;;;;;;57.03;41.43;;;;;;;;;;5013841;28;20665;-68
2023/04/29 00:04:04;;;;;;;54.47;39.57;;;;;;;;;;5013337;28;20602;-70
2023/04/29 00:06:30;;;;;;;63.10;43.97;;;;;;;;;;4995748;28;20215;-70
2023/04/29 00:08:57;;;;;;;63.23;44.23;;;;;;;;;;5013219;28;20551;-67
2023/04/29 00:11:23;;;;;;;62.20;43.53;;;;;;;;;;5013583;28;20222;-67
2023/04/29 00:13:49;;;;;;;60.07;42.33;;;;;;;;;;4995699;28;20602;-65
2023/04/29 00:16:15;;;;;;;68.33;44.60;;;;;;;;;;4995671;28;20266;-66
2023/04/29 00:18:41;;;;;;;65.67;46.83;;;;;;;;;;4995615;28;20199;-71
2023/04/29 00:21:07;;;;;;;72.73;48.17;;;;;;;;;;5013277;28;20673;-69
2023/04/29 00:23:34;;;;;;;66.27;43.80;;;;;;;;;;4995876;28;20195;-69
2023/04/29 00:26:00;;;;;;;81.27;47.37;;;;;;;;;;5013767;28;20255;-68
2023/04/29 00:28:26;;;;;;;88.43;50.43;;;;;;;;;;5016204;28;20229;-69
2023/04/29 00:30:52;;;;;;;84.10;51.07;;;;;;;;;;5017608;28;20186;-68
2023/04/29 00:33:18;;;;;;;88.60;52.43;;;;;;;;;;5019360;28;20719;-68
2023/04/29 00:35:44;;;;;;;91.03;56.33;;;;;;;;;;5019100;28;20207;-68
2023/04/29 00:38:10;;;;;;;93.77;56.10;;;;;;;;;;4999509;28;20210;-68
2023/04/29 00:40:36;;;;;;;104.60;59.30;;;;;;;;;;5017539;28;20230;-68
2023/04/29 00:43:02;;;;;;;103.07;59.10;;;;;;;;;;4999567;28;20565;-68
2023/04/29 00:45:28;;;;;;;101.53;58.90;;;;;;;;;;4999452;28;20233;-68
2023/04/29 00:47:54;;;;;;;105.37;59.33;;;;;;;;;;4998919;28;20596;-68
2023/04/29 00:50:21;;;;;;;106.03;57.90;;;;;;;;;;4999130;28;20183;-67
2023/04/29 00:52:47;;;;;;;111.00;60.53;;;;;;;;;;5016931;28;20180;-68
2023/04/29 00:55:13;;;;;;;104.17;59.33;;;;;;;;;;4999200;28;20180;-68
2023/04/29 00:57:40;;;;;;;108.00;58.23;;;;;;;;;;5016414;28;20287;-68
2023/04/29 01:00:08;;;;;;;114.13;57.97;;;;;;;;;;5016581;28;20176;-67
2023/04/29 01:02:34;;;;;;;107.77;56.20;;;;;;;;;;4998793;28;20276;-68
2023/04/29 01:05:00;;;;;;;118.67;58.83;;;;;;;;;;5016881;28;20215;-68
2023/04/29 01:07:45;;;;;;;114.67;60.50;;;;;;;;;;5016481;28;20195;-68
2023/04/29 01:10:32;;;;;;;104.63;53.47;;;;;;;;;;4998636;28;20263;-68
2023/04/29 01:13:03;;;;;;;114.27;59.43;;;;;;;;;;5016222;28;20287;-68
2023/04/29 01:15:32;;;;;;;101.77;57.00;;;;;;;;;;4998622;28;20211;-68
2023/04/29 01:18:30;;;;;;;107.10;58.87;;;;;;;;;;5016305;28;20192;-68
2023/04/29 01:20:57;;;;;;;104.37;53.63;;;;;;;;;;4956440;28;20199;-68
2023/04/29 01:23:27;;;;;;;104.83;57.63;;;;;;;;;;5016357;28;20187;-68
2023/04/29 01:25:53;;;;;;;109.53;58.50;;;;;;;;;;4998638;28;20184;-68
2023/04/29 01:28:40;;;;;;;104.17;57.17;;;;;;;;;;4998494;28;20211;-66
2023/04/29 01:31:08;;;;;;;106.97;54.50;;;;;;;;;;4998502;28;20222;-67
2023/04/29 01:33:41;;;;;;;109.47;56.73;;;;;;;;;;4998269;28;20207;-68
2023/04/29 01:36:29;;;;;;;102.60;54.53;;;;;;;;;;4998663;28;20646;-68
2023/04/29 01:38:55;;;;;;;109.37;54.33;;;;;;;;;;5014706;28;20196;-69
2023/04/29 01:41:35;;;;;;;114.93;58.30;;;;;;;;;;5016078;28;20176;-69
2023/04/29 01:44:03;;;;;;;110.17;57.20;;;;;;;;;;5017702;28;20167;-69
2023/04/29 01:46:30;;;;;;;118.67;60.93;;;;;;;;;;5015628;28;20664;-69
2023/04/29 01:48:56;;;;;;;121.37;60.57;;;;;;;;;;5015501;28;20219;-69
2023/04/29 01:51:22;;;;;;;113.20;58.80;;;;;;;;;;5015862;28;20680;-69
2023/04/29 01:53:48;;;;;;;115.13;61.27;;;;;;;;;;4997878;28;20438;-69
2023/04/29 01:56:14;;;;;;;121.80;58.87;;;;;;;;;;5015626;28;20179;-69
2023/04/29 01:58:40;;;;;;;117.03;57.33;;;;;;;;;;5015712;28;20237;-69
2023/04/29 02:01:09;;;;;;;117.20;60.13;;;;;;;;;;5015285;28;20266;-69
2023/04/29 02:03:35;;;;;;;119.27;61.73;;;;;;;;;;5015884;28;20184;-69
2023/04/29 02:06:01;;;;;;;126.80;59.77;;;;;;;;;;5015540;28;20679;-69
2023/04/29 02:08:27;;;;;;;112.13;57.13;;;;;;;;;;5015368;28;20204;-69
2023/04/29 02:10:56;;;;;;;99.83;53.13;;;;;;;;;;5015140;28;20186;-69
2023/04/29 02:13:22;;;;;;;102.30;54.10;;;;;;;;;;4997446;28;20211;-69
2023/04/29 02:15:48;;;;;;;95.13;51.13;;;;;;;;;;5015058;28;20178;-69
2023/04/29 02:18:15;;;;;;;85.83;48.73;;;;;;;;;;5014938;28;20196;-68
2023/04/29 02:20:41;;;;;;;94.43;48.50;;;;;;;;;;5014920;28;20180;-68
2023/04/29 02:23:07;;;;;;;80.57;47.40;;;;;;;;;;5015422;28;20519;-68
2023/04/29 02:25:33;;;;;;;79.43;45.83;;;;;;;;;;5014946;28;20262;-69
2023/04/29 02:27:59;;;;;;;76.20;45.43;;;;;;;;;;5014744;28;20200;-68
2023/04/29 02:30:25;;;;;;;74.67;44.83;;;;;;;;;;5014887;28;20182;-68
2023/04/29 02:32:51;;;;;;;75.83;43.53;;;;;;;;;;4997140;28;20184;-68
2023/04/29 02:35:18;;;;;;;71.03;41.70;;;;;;;;;;4997060;28;20660;-69
2023/04/29 02:37:44;;;;;;;60.67;39.73;;;;;;;;;;5014985;28;20204;-69
2023/04/29 02:40:10;;;;;;;70.00;39.70;;;;;;;;;;5014607;28;20182;-68
2023/04/29 02:42:37;;;;;;;65.40;38.67;;;;;;;;;;5014804;28;20182;-69
2023/04/29 02:45:03;;;;;;;58.30;36.10;;;;;;;;;;4996952;28;20202;-68
2023/04/29 02:47:29;;;;;;;55.10;36.63;;;;;;;;;;4996643;28;20295;-68
2023/04/29 02:49:55;;;;;;;56.57;36.57;;;;;;;;;;5015126;28;20168;-68
2023/04/29 02:52:20;;;;;;;55.27;35.70;;;;;;;;;;5014678;28;20180;-69
2023/04/29 02:54:46;;;;;;;62.83;36.80;;;;;;;;;;4996679;28;20579;-69
2023/04/29 02:57:12;;;;;;;51.43;34.57;;;;;;;;;;5014307;28;20176;-69
2023/04/29 02:59:38;;;;;;;61.80;36.60;;;;;;;;;;4996608;28;20558;-68
2023/04/29 03:02:05;;;;;;;54.30;37.20;;;;;;;;;;5014243;28;20183;-67
2023/04/29 03:04:31;;;;;;;55.17;35.73;;;;;;;;;;5014611;28;20180;-68
2023/04/29 03:06:57;;;;;;;55.67;34.87;;;;;;;;;;4996992;28;20206;-68
2023/04/29 03:09:23;;;;;;;54.63;33.50;;;;;;;;;;5014067;28;20278;-68
2023/04/29 03:11:49;;;;;;;52.63;33.13;;;;;;;;;;5014471;28;20176;-68
2023/04/29 03:14:15;;;;;;;49.57;32.23;;;;;;;;;;4996487;28;20238;-69
2023/04/29 03:16:42;;;;;;;53.87;34.13;;;;;;;;;;5014167;28;20263;-68
2023/04/29 03:19:08;;;;;;;54.80;34.53;;;;;;;;;;4996246;28;20574;-68
2023/04/29 03:21:33;;;;;;;56.90;36.13;;;;;;;;;;5013956;28;20263;-69
2023/04/29 03:23:59;;;;;;;55.47;35.87;;;;;;;;;;4997014;28;20184;-68
2023/04/29 03:26:25;;;;;;;56.00;34.67;;;;;;;;;;5013871;28;20187;-68
2023/04/29 03:28:51;;;;;;;56.83;35.83;;;;;;;;;;5014108;28;20200;-67
2023/04/29 03:31:19;;;;;;;57.57;36.80;;;;;;;;;;5014162;28;20208;-69
2023/04/29 03:33:45;;;;;;;60.03;36.07;;;;;;;;;;4996407;28;20655;-69
2023/04/29 03:36:12;;;;;;;51.87;35.30;;;;;;;;;;4996879;28;20214;-69
2023/04/29 03:38:38;;;;;;;58.73;36.00;;;;;;;;;;5014065;28;20199;-68
2023/04/29 03:41:04;;;;;;;48.93;32.97;;;;;;;;;;5014083;28;20595;-69
2023/04/29 03:43:30;;;;;;;52.57;35.53;;;;;;;;;;4996369;28;20188;-73
2023/04/29 03:45:56;;;;;;;52.97;33.10;;;;;;;;;;5014574;28;20722;-68
2023/04/29 03:48:22;;;;;;;54.00;34.50;;;;;;;;;;5015642;28;20221;-70
2023/04/29 03:50:48;;;;;;;50.00;32.10;;;;;;;;;;5001872;28;20618;-69
2023/04/29 03:53:14;;;;;;;51.37;33.53;;;;;;;;;;5002305;28;20207;-68
2023/04/29 03:55:40;;;;;;;49.13;31.70;;;;;;;;;;5020103;28;20182;-70
2023/04/29 03:58:06;;;;;;;44.73;30.17;;;;;;;;;;5025207;28;20199;-69
2023/04/29 04:00:32;;;;;;;48.50;32.07;;;;;;;;;;5024266;28;20218;-69
2023/04/29 04:02:59;;;;;;;50.10;31.97;;;;;;;;;;5027167;28;20176;-69
2023/04/29 04:05:25;;;;;;;45.30;31.23;;;;;;;;;;5027274;28;20226;-69
2023/04/29 04:07:51;;;;;;;45.70;31.40;;;;;;;;;;5006967;28;20210;-69
2023/04/29 04:10:17;;;;;;;48.57;31.83;;;;;;;;;;5005950;28;20183;-69
2023/04/29 04:12:44;;;;;;;49.00;29.43;;;;;;;;;;5003764;28;20575;-68
2023/04/29 04:15:10;;;;;;;47.33;30.83;;;;;;;;;;5002510;28;20584;-68
2023/04/29 04:17:36;;;;;;;49.40;32.10;;;;;;;;;;5020358;28;20191;-68
2023/04/29 04:20:02;;;;;;;46.30;31.13;;;;;;;;;;5020686;28;20176;-68
2023/04/29 04:22:28;;;;;;;47.13;30.60;;;;;;;;;;5020250;28;20180;-68
2023/04/29 04:24:55;;;;;;;46.60;32.37;;;;;;;;;;5002595;28;20184;-69
2023/04/29 04:27:21;;;;;;;45.37;31.03;;;;;;;;;;5020184;28;20654;-69
2023/04/29 04:29:46;;;;;;;47.37;31.40;;;;;;;;;;5002535;28;20194;-68
2023/04/29 04:32:12;;;;;;;51.63;32.13;;;;;;;;;;5020063;28;20184;-68
2023/04/29 04:34:38;;;;;;;48.50;31.67;;;;;;;;;;5019924;28;20207;-69
2023/04/29 04:37:05;;;;;;;42.63;29.63;;;;;;;;;;5020569;28;20172;-69
2023/04/29 04:39:31;;;;;;;51.97;31.53;;;;;;;;;;5002203;28;20544;-69
2023/04/29 04:41:57;;;;;;;46.60;30.97;;;;;;;;;;5002468;28;20215;-68
2023/04/29 04:44:23;;;;;;;42.43;30.83;;;;;;;;;;5019948;28;20238;-69
2023/04/29 04:46:52;;;;;;;46.70;30.20;;;;;;;;;;5019872;28;20179;-68
2023/04/29 04:49:18;;;;;;;48.77;30.77;;;;;;;;;;5002157;28;20219;-68
2023/04/29 04:51:44;;;;;;;46.10;31.00;;;;;;;;;;5020486;28;20202;-68
2023/04/29 04:54:11;;;;;;;45.67;31.60;;;;;;;;;;5019963;28;20278;-68
2023/04/29 04:56:37;;;;;;;47.97;31.60;;;;;;;;;;5019936;28;20172;-68
2023/04/29 04:59:03;;;;;;;49.43;31.17;;;;;;;;;;5002203;28;20299;-68
2023/04/29 05:01:29;;;;;;;42.67;30.17;;;;;;;;;;5019761;28;20565;-68
2023/04/29 05:03:55;;;;;;;42.23;30.00;;;;;;;;;;5020085;28;20699;-68
2023/04/29 05:06:21;;;;;;;42.17;29.90;;;;;;;;;;5019704;28;20180;-68
2023/04/29 05:08:47;;;;;;;43.20;30.97;;;;;;;;;;5019671;28;20226;-68
2023/04/29 05:11:17;;;;;;;41.00;29.50;;;;;;;;;;5019618;28;20184;-68
2023/04/29 05:13:43;;;;;;;41.47;28.53;;;;;;;;;;5018425;28;20246;-68
2023/04/29 05:16:09;;;;;;;39.97;27.40;;;;;;;;;;5016397;28;20550;-68
2023/04/29 05:18:35;;;;;;;40.27;26.23;;;;;;;;;;4998863;28;20192;-68
2023/04/29 05:21:01;;;;;;;34.67;25.90;;;;;;;;;;5016186;28;20175;-70
2023/04/29 05:23:27;;;;;;;34.83;25.73;;;;;;;;;;5016239;28;20574;-69
2023/04/29 05:25:53;;;;;;;38.37;27.40;;;;;;;;;;4999474;28;20682;-70
2023/04/29 05:28:19;;;;;;;34.87;26.67;;;;;;;;;;5016011;28;20203;-69
2023/04/29 05:30:46;;;;;;;32.47;25.73;;;;;;;;;;4998525;28;20315;-68
2023/04/29 05:33:12;;;;;;;35.97;26.60;;;;;;;;;;5016263;28;20183;-68
2023/04/29 05:35:38;;;;;;;34.63;25.63;;;;;;;;;;4998443;28;20187;-69
2023/04/29 05:38:04;;;;;;;32.80;25.23;;;;;;;;;;5016207;28;20199;-69
2023/04/29 05:40:30;;;;;;;35.60;25.93;;;;;;;;;;5016227;28;20615;-69
2023/04/29 05:42:56;;;;;;;31.57;24.80;;;;;;;;;;5016624;28;20513;-69
2023/04/29 05:45:22;;;;;;;33.80;26.57;;;;;;;;;;5016168;28;20660;-69
2023/04/29 05:47:48;;;;;;;34.43;25.80;;;;;;;;;;5015995;28;20759;-69
2023/04/29 05:50:13;;;;;;;33.50;26.47;;;;;;;;;;5015827;28;20558;-68
2023/04/29 05:52:40;;;;;;;31.97;24.87;;;;;;;;;;5015929;28;20179;-68
2023/04/29 05:55:06;;;;;;;34.03;25.27;;;;;;;;;;5015709;28;20250;-68
2023/04/29 05:57:31;;;;;;;28.93;24.30;;;;;;;;;;5015980;28;20195;-68
2023/04/29 05:59:58;;;;;;;34.83;25.70;;;;;;;;;;5016271;28;20176;-69
2023/04/29 06:02:24;;;;;;;33.73;25.83;;;;;;;;;;4998444;28;20187;-68
2023/04/29 06:04:50;;;;;;;31.87;26.27;;;;;;;;;;4998715;28;20583;-69
2023/04/29 06:07:17;;;;;;;29.83;24.27;;;;;;;;;;4998186;28;20196;-69
2023/04/29 06:09:43;;;;;;;31.83;23.43;;;;;;;;;;5015804;28;20190;-69
2023/04/29 06:12:09;;;;;;;32.40;24.93;;;;;;;;;;4998367;28;20536;-67
2023/04/29 06:14:35;;;;;;;27.27;22.63;;;;;;;;;;4997874;28;20200;-69
2023/04/29 06:17:02;;;;;;;32.97;23.80;;;;;;;;;;5015316;28;20176;-68
2023/04/29 06:19:28;;;;;;;27.57;21.93;;;;;;;;;;5015551;28;20222;-68
2023/04/29 06:21:54;;;;;;;26.97;21.60;;;;;;;;;;5015377;28;20646;-69
2023/04/29 06:24:20;;;;;;;27.97;23.07;;;;;;;;;;5015283;28;20188;-70
2023/04/29 06:26:47;;;;;;;28.00;22.03;;;;;;;;;;5014429;28;20190;-69
2023/04/29 06:29:13;;;;;;;29.03;21.60;;;;;;;;;;5015304;28;20250;-69
2023/04/29 06:31:39;;;;;;;25.40;22.10;;;;;;;;;;5015019;28;20183;-68
2023/04/29 06:34:05;;;;;;;25.77;22.07;;;;;;;;;;5015142;28;20211;-67
2023/04/29 06:36:31;;;;;;;26.50;22.10;;;;;;;;;;5015097;28;20267;-68
2023/04/29 06:38:57;;;;;;;26.90;22.20;;;;;;;;;;4997180;28;20195;-68
2023/04/29 06:41:23;;;;;;;29.50;21.23;;;;;;;;;;5014824;28;20183;-68
2023/04/29 06:43:49;;;;;;;25.30;21.67;;;;;;;;;;5015061;28;20700;-68
2023/04/29 06:46:15;;;;;;;25.50;21.23;;;;;;;;;;5014801;28;20183;-69
2023/04/29 06:48:41;;;;;;;25.10;21.63;;;;;;;;;;5014617;28;20215;-68
2023/04/29 06:51:07;;;;;;;24.70;22.10;;;;;;;;;;4997003;28;20183;-69
2023/04/29 06:53:33;;;;;;;28.73;22.87;;;;;;;;;;5014910;28;20302;-70
2023/04/29 06:55:59;;;;;;;26.80;22.37;;;;;;;;;;5014591;28;20602;-69
2023/04/29 06:58:25;;;;;;;25.97;22.23;;;;;;;;;;5014572;28;20196;-69
2023/04/29 07:00:51;;;;;;;29.03;23.07;;;;;;;;;;5014460;28;20295;-69
2023/04/29 07:03:18;;;;;;;24.53;21.77;;;;;;;;;;5014698;28;20183;-69
2023/04/29 07:05:44;;;;;;;24.27;21.50;;;;;;;;;;5014677;28;20204;-69
2023/04/29 07:08:11;;;;;;;27.77;21.77;;;;;;;;;;4996643;28;20196;-69
2023/04/29 07:10:37;;;;;;;27.53;21.80;;;;;;;;;;5014250;28;20646;-69
2023/04/29 07:13:03;;;;;;;26.97;22.37;;;;;;;;;;5014721;28;20247;-69
2023/04/29 07:15:30;;;;;;;27.13;22.27;;;;;;;;;;5014663;28;20184;-70
2023/04/29 07:17:56;;;;;;;24.63;20.80;;;;;;;;;;5014365;28;20200;-70
2023/04/29 07:20:22;;;;;;;26.63;21.80;;;;;;;;;;5014513;28;20226;-69
2023/04/29 07:22:48;;;;;;;25.70;21.47;;;;;;;;;;5014145;28;20183;-70
2023/04/29 07:25:14;;;;;;;26.80;20.97;;;;;;;;;;4996592;28;20595;-69
2023/04/29 07:27:40;;;;;;;26.07;21.07;;;;;;;;;;4996598;28;20283;-69
2023/04/29 07:30:07;;;;;;;26.27;21.70;;;;;;;;;;4996402;28;20652;-69
2023/04/29 07:32:33;;;;;;;26.60;21.17;;;;;;;;;;5014382;28;20700;-69
2023/04/29 07:35:00;;;;;;;27.10;21.30;;;;;;;;;;5014539;28;20199;-69
2023/04/29 07:37:26;;;;;;;26.90;20.67;;;;;;;;;;5013162;28;20199;-69
2023/04/29 07:39:52;;;;;;;26.23;21.70;;;;;;;;;;5013838;28;20182;-69
2023/04/29 07:42:18;;;;;;;25.47;21.40;;;;;;;;;;5014010;28;20187;-69
2023/04/29 07:44:45;;;;;;;28.67;22.33;;;;;;;;;;5014112;28;20234;-69
2023/04/29 07:47:11;;;;;;;28.37;21.83;;;;;;;;;;5013975;28;20678;-69
2023/04/29 07:49:37;;;;;;;27.30;21.00;;;;;;;;;;5014001;28;20176;-70
2023/04/29 07:52:08;;;;;;;31.93;24.53;;;;;;;;;;5014047;28;20175;-69
2023/04/29 07:54:34;;;;;;;33.67;24.33;;;;;;;;;;4996035;28;20590;-69
2023/04/29 07:57:03;;;;;;;33.03;24.10;;;;;;;;;;4996162;28;20192;-69
2023/04/29 07:59:29;;;;;;;29.70;24.00;;;;;;;;;;5014819;28;20254;-69
2023/04/29 08:01:56;;;;;;;29.03;24.07;;;;;;;;;;4996073;28;20598;-68
2023/04/29 08:04:22;;;;;;;33.87;24.57;;;;;;;;;;4996025;28;20194;-68
2023/04/29 08:06:48;;;;;;;29.43;24.30;;;;;;;;;;5014235;28;20225;-69
2023/04/29 08:09:14;;;;;;;33.37;24.33;;;;;;;;;;5013681;28;20230;-69
2023/04/29 08:11:41;;;;;;;30.83;24.00;;;;;;;;;;5013966;28;20678;-69
2023/04/29 08:14:07;;;;;;;31.43;24.97;;;;;;;;;;5013727;28;20265;-69
2023/04/29 08:16:33;;;;;;;33.10;24.97;;;;;;;;;;5013610;28;20530;-68
2023/04/29 08:18:59;;;;;;;33.40;24.33;;;;;;;;;;4995877;28;20210;-69
2023/04/29 08:21:26;;;;;;;35.00;25.53;;;;;;;;;;5014090;28;20255;-68
2023/04/29 08:23:53;;;;;;;34.30;23.40;;;;;;;;;;4996011;28;20262;-68
2023/04/29 08:26:19;;;;;;;30.83;23.27;;;;;;;;;;5013900;28;20647;-68
2023/04/29 08:28:45;;;;;;;33.70;26.47;;;;;;;;;;4995721;28;20199;-70
2023/04/29 08:31:21;;;;;;;34.10;25.63;;;;;;;;;;4995653;28;20191;-66
2023/04/29 08:33:48;;;;;;;36.00;26.27;;;;;;;;;;5013184;28;20207;-68
2023/04/29 08:36:14;;;;;;;34.50;28.07;;;;;;;;;;5013540;28;20172;-68
2023/04/29 08:38:40;;;;;;;36.53;26.73;;;;;;;;;;4995790;28;20199;-68
2023/04/29 08:41:09;;;;;;;34.93;28.33;;;;;;;;;;5013368;28;20598;-67
2023/04/29 08:43:36;;;;;;;41.07;28.60;;;;;;;;;;5013501;28;20183;-67
2023/04/29 08:46:03;;;;;;;33.90;27.87;;;;;;;;;;5013230;28;20171;-67
2023/04/29 08:48:29;;;;;;;37.53;27.53;;;;;;;;;;5014077;28;20704;-67
2023/04/29 08:50:57;;;;;;;37.60;27.97;;;;;;;;;;5017452;28;20191;-67
2023/04/29 08:53:23;;;;;;;35.33;27.33;;;;;;;;;;5016811;28;20673;-68
2023/04/29 08:55:49;;;;;;;33.43;25.10;;;;;;;;;;4999323;28;20721;-67
2023/04/29 08:58:16;;;;;;;36.23;27.43;;;;;;;;;;5016712;28;20203;-69
2023/04/29 09:00:42;;;;;;;32.17;25.17;;;;;;;;;;4999087;28;20198;-69
2023/04/29 09:03:14;;;;;;;32.93;24.13;;;;;;;;;;4998995;28;20183;-69
2023/04/29 09:05:41;;;;;;;32.10;26.17;;;;;;;;;;5016625;28;20176;-69
2023/04/29 09:08:08;;;;;;;39.10;24.10;;;;;;;;;;5016952;28;20204;-69
2023/04/29 09:10:36;;;;;;;36.23;26.87;;;;;;;;;;4998993;28;20207;-69
2023/04/29 09:13:02;;;;;;;35.30;25.87;;;;;;;;;;5016962;28;20522;-69
2023/04/29 09:15:28;;;;;;;35.17;24.27;;;;;;;;;;5016592;28;20234;-69
2023/04/29 09:17:54;;;;;;;33.07;25.20;;;;;;;;;;4998862;28;20203;-69
2023/04/29 09:20:20;;;;;;;32.33;24.43;;;;;;;;;;5016238;28;20251;-69
2023/04/29 09:22:47;;;;;;;33.40;25.87;;;;;;;;;;5017174;28;20168;-69
2023/04/29 09:25:13;;;;;;;30.80;24.97;;;;;;;;;;5017126;28;20529;-74
2023/04/29 09:27:39;;;;;;;32.63;24.23;;;;;;;;;;5016735;28;20250;-74
2023/04/29 09:30:05;;;;;;;31.87;26.20;;;;;;;;;;4999222;28;20184;-72
2023/04/29 09:32:31;;;;;;;37.47;25.93;;;;;;;;;;5016672;28;20179;-71
2023/04/29 09:34:57;;;;;;;34.47;25.43;;;;;;;;;;4999044;28;20634;-69
2023/04/29 09:37:27;;;;;;;38.63;26.53;;;;;;;;;;4998830;28;20190;-69
2023/04/29 09:39:54;;;;;;;33.40;25.90;;;;;;;;;;5016726;28;20187;-70
2023/04/29 09:42:20;;;;;;;31.77;24.07;;;;;;;;;;5019599;28;20199;-68
2023/04/29 09:44:46;;;;;;;31.23;24.50;;;;;;;;;;5001672;28;20650;-68
2023/04/29 09:47:12;;;;;;;26.63;22.67;;;;;;;;;;5001675;28;20192;-67
2023/04/29 09:49:44;;;;;;;35.00;23.93;;;;;;;;;;5018960;28;20302;-68
2023/04/29 09:52:11;;;;;;;29.00;22.40;;;;;;;;;;5015984;28;20234;-65
2023/04/29 09:54:38;;;;;;;35.67;24.70;;;;;;;;;;4998302;28;20212;-68
2023/04/29 09:57:05;;;;;;;30.40;23.67;;;;;;;;;;4998211;28;20183;-69
2023/04/29 09:59:33;;;;;;;27.17;22.40;;;;;;;;;;5015420;28;20184;-68
2023/04/29 10:01:59;;;;;;;27.00;23.47;;;;;;;;;;4997837;28;20203;-68
2023/04/29 10:04:26;;;;;;;28.30;23.27;;;;;;;;;;5015865;28;20654;-68
2023/04/29 10:06:53;;;;;;;30.20;23.27;;;;;;;;;;5015667;28;20180;-68
2023/04/29 10:09:19;;;;;;;30.20;22.97;;;;;;;;;;5015629;28;20689;-68
2023/04/29 10:11:46;;;;;;;31.37;24.63;;;;;;;;;;4998081;28;20194;-68
2023/04/29 10:14:13;;;;;;;26.87;22.93;;;;;;;;;;5015250;28;20261;-68
2023/04/29 10:16:45;;;;;;;31.43;22.73;;;;;;;;;;5015617;28;20275;-69
2023/04/29 10:19:12;;;;;;;29.57;24.17;;;;;;;;;;5015622;28;20188;-67
2023/04/29 10:21:38;;;;;;;27.90;22.87;;;;;;;;;;5015595;28;20597;-66
2023/04/29 10:24:04;;;;;;;30.77;23.13;;;;;;;;;;5015932;28;20207;-66
2023/04/29 10:26:30;;;;;;;30.37;23.27;;;;;;;;;;4997582;28;20218;-67
2023/04/29 10:28:58;;;;;;;29.97;23.23;;;;;;;;;;5015222;28;20199;-67
2023/04/29 10:31:27;;;;;;;27.33;21.90;;;;;;;;;;5016320;28;20171;-67
2023/04/29 10:33:56;;;;;;;28.00;22.53;;;;;;;;;;4998159;28;20357;-67
2023/04/29 10:36:22;;;;;;;28.53;22.77;;;;;;;;;;4997916;28;20179;-67
2023/04/29 10:38:52;;;;;;;27.13;23.03;;;;;;;;;;5014730;28;20207;-67
2023/04/29 10:41:29;;;;;;;27.77;21.40;;;;;;;;;;5014880;28;20668;-72
2023/04/29 10:43:55;;;;;;;28.83;22.07;;;;;;;;;;5015760;28;20203;-66
2023/04/29 10:46:23;;;;;;;30.17;22.47;;;;;;;;;;4999889;28;20202;-68
2023/04/29 10:48:51;;;;;;;26.03;20.83;;;;;;;;;;5015305;28;20270;-67
2023/04/29 10:51:30;;;;;;;26.67;21.63;;;;;;;;;;4997619;28;20191;-67
2023/04/29 10:54:15;;;;;;;24.77;20.90;;;;;;;;;;5015187;28;20199;-67
2023/04/29 10:56:51;;;;;;;23.97;20.43;;;;;;;;;;5017553;28;20183;-66
2023/04/29 10:59:32;;;;;;;27.10;20.50;;;;;;;;;;4999331;28;20266;-67
2023/04/29 11:01:58;;;;;;;22.57;19.90;;;;;;;;;;5000942;28;20182;-68
2023/04/29 11:04:24;;;;;;;23.87;20.33;;;;;;;;;;5015465;28;20263;-68
2023/04/29 11:06:54;;;;;;;24.63;19.03;;;;;;;;;;5015154;28;20182;-68
2023/04/29 11:09:23;;;;;;;24.00;20.17;;;;;;;;;;4996745;28;20668;-68
2023/04/29 11:11:53;;;;;;;23.40;18.80;;;;;;;;;;5014187;28;20176;-68
2023/04/29 11:14:24;;;;;;;26.17;20.93;;;;;;;;;;5014094;28;20755;-67
2023/04/29 11:17:09;;;;;;;27.00;21.00;;;;;;;;;;5014339;28;20168;-68
2023/04/29 11:19:36;;;;;;;23.57;19.40;;;;;;;;;;5014810;28;20156;-68
2023/04/29 11:22:10;;;;;;;22.23;18.57;;;;;;;;;;5014344;28;20172;-68
2023/04/29 11:24:36;;;;;;;20.57;18.07;;;;;;;;;;5014068;28;20525;-68
2023/04/29 11:27:06;;;;;;;22.80;18.13;;;;;;;;;;4996376;28;20275;-67
2023/04/29 11:29:32;;;;;;;22.63;18.47;;;;;;;;;;4996325;28;20262;-68
2023/04/29 11:32:02;;;;;;;22.73;18.77;;;;;;;;;;5014050;28;20233;-67
2023/04/29 11:34:27;;;;;;;21.80;18.77;;;;;;;;;;5014099;28;20261;-68
2023/04/29 11:36:53;;;;;;;22.93;18.57;;;;;;;;;;5014126;28;20259;-68
2023/04/29 11:39:20;;;;;;;20.83;16.90;;;;;;;;;;5014005;28;20638;-67
2023/04/29 11:41:45;;;;;;;21.40;17.53;;;;;;;;;;5014194;28;20171;-68
2023/04/29 11:44:12;;;;;;;21.57;17.60;;;;;;;;;;5014302;28;20677;-67
2023/04/29 11:46:38;;;;;;;19.87;17.17;;;;;;;;;;4996405;28;20187;-67
2023/04/29 11:49:03;;;;;;;21.50;16.53;;;;;;;;;;5013739;28;20274;-67
2023/04/29 11:51:31;;;;;;;22.37;17.77;;;;;;;;;;5014240;28;20249;-68
2023/04/29 11:53:57;;;;;;;20.27;18.10;;;;;;;;;;4996203;28;20265;-68
2023/04/29 11:56:24;;;;;;;20.87;17.53;;;;;;;;;;4996314;28;20180;-67
2023/04/29 11:58:53;;;;;;;19.57;16.90;;;;;;;;;;5013913;28;20191;-68
2023/04/29 12:01:20;;;;;;;21.97;16.13;;;;;;;;;;5014186;28;20172;-67
2023/04/29 12:03:48;;;;;;;19.27;15.67;;;;;;;;;;4996613;28;20195;-68
2023/04/29 12:06:14;;;;;;;17.23;15.43;;;;;;;;;;5013895;28;20176;-68
2023/04/29 12:08:40;;;;;;;18.77;15.17;;;;;;;;;;5013742;28;20202;-68
2023/04/29 12:11:06;;;;;;;18.03;16.03;;;;;;;;;;5013759;28;20183;-66
2023/04/29 12:13:35;;;;;;;17.30;15.30;;;;;;;;;;5013615;28;20200;-68
2023/04/29 12:16:01;;;;;;;19.47;15.33;;;;;;;;;;5013512;28;20176;-67
2023/04/29 12:18:28;;;;;;;20.90;15.47;;;;;;;;;;5013480;28;20195;-68
2023/04/29 12:20:55;;;;;;;20.07;13.60;;;;;;;;;;4995773;28;20204;-68
2023/04/29 12:23:22;;;;;;;18.13;13.27;;;;;;;;;;5014340;28;20179;-67
2023/04/29 12:25:49;;;;;;;15.53;13.83;;;;;;;;;;4999859;28;20172;-68
2023/04/29 12:28:15;;;;;;;17.00;14.23;;;;;;;;;;5017215;28;20712;-68
2023/04/29 12:30:44;;;;;;;18.40;13.80;;;;;;;;;;5017408;28;20178;-67
2023/04/29 12:33:10;;;;;;;16.10;13.60;;;;;;;;;;5017718;28;20196;-68
2023/04/29 12:35:39;;;;;;;20.97;15.43;;;;;;;;;;5017339;28;20639;-68
2023/04/29 12:38:05;;;;;;;22.13;14.43;;;;;;;;;;5017137;28;20199;-68
2023/04/29 12:40:32;;;;;;;15.87;14.27;;;;;;;;;;5016952;28;20642;-67
2023/04/29 12:43:06;;;;;;;17.60;14.27;;;;;;;;;;5017708;28;20531;-68
2023/04/29 12:45:32;;;;;;;16.53;13.70;;;;;;;;;;5017461;28;20233;-68
2023/04/29 12:47:59;;;;;;;15.23;13.57;;;;;;;;;;5017075;28;20220;-68
2023/04/29 12:50:32;;;;;;;15.43;13.77;;;;;;;;;;4999466;28;20195;-68
2023/04/29 12:52:58;;;;;;;17.53;13.77;;;;;;;;;;5017162;28;20728;-68
2023/04/29 12:55:24;;;;;;;23.07;14.67;;;;;;;;;;5016989;28;20208;-68
2023/04/29 12:57:51;;;;;;;17.13;15.33;;;;;;;;;;5016761;28;20207;-68
2023/04/29 13:00:19;;;;;;;16.00;14.37;;;;;;;;;;4999295;28;20183;-67
2023/04/29 13:02:45;;;;;;;15.67;13.53;;;;;;;;;;5016851;28;20176;-68
2023/04/29 13:05:12;;;;;;;16.00;14.30;;;;;;;;;;5016636;28;20184;-68
2023/04/29 13:07:37;;;;;;;17.23;14.33;;;;;;;;;;4999133;28;20690;-67
2023/04/29 13:10:05;;;;;;;19.17;14.27;;;;;;;;;;4998977;28;20194;-68
2023/04/29 13:12:31;;;;;;;17.03;14.63;;;;;;;;;;5016901;28;20183;-68
2023/04/29 13:14:57;;;;;;;14.77;13.27;;;;;;;;;;5016732;28;20398;-69
2023/04/29 13:17:23;;;;;;;14.67;12.97;;;;;;;;;;5016893;28;20172;-68
2023/04/29 13:19:49;;;;;;;16.20;13.87;;;;;;;;;;4999038;28;20183;-68
2023/04/29 13:22:15;;;;;;;14.67;13.13;;;;;;;;;;4998769;28;20218;-68
2023/04/29 13:24:41;;;;;;;16.50;12.87;;;;;;;;;;4998908;28;20179;-68
2023/04/29 13:27:07;;;;;;;13.67;11.97;;;;;;;;;;5016421;28;20190;-68
2023/04/29 13:29:33;;;;;;;15.73;11.10;;;;;;;;;;5016259;28;20179;-68
2023/04/29 13:31:59;;;;;;;12.80;10.50;;;;;;;;;;5016520;28;20179;-68
2023/04/29 13:34:25;;;;;;;12.47;10.43;;;;;;;;;;4997978;28;20204;-68
2023/04/29 13:36:51;;;;;;;16.43;11.67;;;;;;;;;;4997955;28;20192;-68
2023/04/29 13:39:18;;;;;;;14.13;11.30;;;;;;;;;;5016399;28;20238;-68
2023/04/29 13:41:45;;;;;;;13.23;10.90;;;;;;;;;;5015755;28;20176;-68
2023/04/29 13:44:11;;;;;;;14.23;11.30;;;;;;;;;;5016238;28;20206;-68
2023/04/29 13:46:37;;;;;;;15.27;11.80;;;;;;;;;;4998161;28;20227;-67
2023/04/29 13:49:03;;;;;;;12.83;11.33;;;;;;;;;;5015740;28;20219;-68
2023/04/29 13:51:30;;;;;;;11.73;10.53;;;;;;;;;;4998502;28;20219;-68
2023/04/29 13:53:56;;;;;;;13.73;10.17;;;;;;;;;;5015834;28;20199;-68
2023/04/29 13:56:24;;;;;;;10.90;9.80;;;;;;;;;;5015907;28;20203;-68
2023/04/29 13:58:51;;;;;;;13.90;9.60;;;;;;;;;;5015629;28;20691;-70
2023/04/29 14:01:16;;;;;;;10.67;9.50;;;;;;;;;;4997855;28;20302;-68
2023/04/29 14:03:43;;;;;;;9.50;8.33;;;;;;;;;;5015684;28;20206;-68
2023/04/29 14:06:09;;;;;;;12.60;10.17;;;;;;;;;;5015766;28;20233;-69
2023/04/29 14:08:35;;;;;;;12.20;9.43;;;;;;;;;;5015541;28;20200;-68
2023/04/29 14:11:01;;;;;;;11.67;9.20;;;;;;;;;;5015707;28;20665;-69
2023/04/29 14:13:28;;;;;;;10.70;9.17;;;;;;;;;;4998515;28;20349;-68
2023/04/29 14:15:55;;;;;;;14.57;10.23;;;;;;;;;;4997964;28;20176;-68